Georgetown, South Carolina
Current Conditions -  °F | °C
As of 9:45 PM on Tuesday 25 Nov 2014 (Local Time) from KMYR Reporting Station
Haze Haze  
Wind Chill: 63°   Ceiling: 300
Heat Index: 63°   Visibility: 6mi
Dew Point: 61°   Wind: 12mph
Humidity: 94%   Direction: 70°ENE
Pressure: 29.99"   Gusts: NA
Location:  33.37°N, 79.28°W
Report Text: KMYR 260245Z 07010KT 6SM BR OVC003 17/16 A2999
Loading
Personal Weather Stations






























Interactive Weather Map New forecast layout! Learn more

10-Day Weather Forecast

Advertisements
Track Severe Weather on mobile